sensor_id;sensor_type;location;lat;lon;timestamp;P1;durP1;ratioP1;P2;durP2;ratioP2
42364;SDS011;28498;54.400;18.566;2022-07-18T00:00:53;10.70;;;3.92;;
42364;SDS011;28498;54.400;18.566;2022-07-18T00:03:20;10.30;;;4.57;;
42364;SDS011;28498;54.400;18.566;2022-07-18T00:05:47;10.18;;;4.13;;
42364;SDS011;28498;54.400;18.566;2022-07-18T00:08:14;13.13;;;4.70;;
42364;SDS011;28498;54.400;18.566;2022-07-18T00:10:41;12.27;;;4.20;;
42364;SDS011;28498;54.400;18.566;2022-07-18T00:13:08;7.25;;;3.75;;
42364;SDS011;28498;54.400;18.566;2022-07-18T00:15:36;7.57;;;3.40;;
42364;SDS011;28498;54.400;18.566;2022-07-18T00:18:04;7.78;;;3.35;;
42364;SDS011;28498;54.400;18.566;2022-07-18T00:20:31;6.07;;;3.53;;
42364;SDS011;28498;54.400;18.566;2022-07-18T00:22:58;6.70;;;3.50;;
42364;SDS011;28498;54.400;18.566;2022-07-18T00:25:24;11.43;;;3.30;;
42364;SDS011;28498;54.400;18.566;2022-07-18T00:27:51;7.07;;;3.10;;
42364;SDS011;28498;54.400;18.566;2022-07-18T00:30:18;11.32;;;3.80;;
42364;SDS011;28498;54.400;18.566;2022-07-18T00:32:45;5.57;;;3.10;;
42364;SDS011;28498;54.400;18.566;2022-07-18T00:35:12;9.55;;;3.45;;
42364;SDS011;28498;54.400;18.566;2022-07-18T00:37:39;9.55;;;3.33;;
42364;SDS011;28498;54.400;18.566;2022-07-18T00:40:06;10.65;;;3.78;;
42364;SDS011;28498;54.400;18.566;2022-07-18T00:42:34;13.85;;;4.18;;
42364;SDS011;28498;54.400;18.566;2022-07-18T00:45:00;10.40;;;3.53;;
42364;SDS011;28498;54.400;18.566;2022-07-18T00:47:29;9.10;;;4.32;;
42364;SDS011;28498;54.400;18.566;2022-07-18T00:49:55;8.15;;;4.05;;
42364;SDS011;28498;54.400;18.566;2022-07-18T00:52:22;9.32;;;6.57;;
42364;SDS011;28498;54.400;18.566;2022-07-18T00:54:49;8.25;;;5.47;;
42364;SDS011;28498;54.400;18.566;2022-07-18T00:57:16;9.50;;;4.32;;
42364;SDS011;28498;54.400;18.566;2022-07-18T00:59:43;9.57;;;4.20;;
42364;SDS011;28498;54.400;18.566;2022-07-18T01:02:29;9.90;;;4.35;;
42364;SDS011;28498;54.400;18.566;2022-07-18T01:04:56;6.65;;;4.30;;
42364;SDS011;28498;54.400;18.566;2022-07-18T01:07:23;7.13;;;4.40;;
42364;SDS011;28498;54.400;18.566;2022-07-18T01:09:50;8.70;;;4.63;;
42364;SDS011;28498;54.400;18.566;2022-07-18T01:12:17;12.95;;;5.35;;
42364;SDS011;28498;54.400;18.566;2022-07-18T01:14:44;9.85;;;4.47;;
42364;SDS011;28498;54.400;18.566;2022-07-18T01:17:15;8.98;;;4.28;;
42364;SDS011;28498;54.400;18.566;2022-07-18T01:19:43;11.85;;;4.00;;
42364;SDS011;28498;54.400;18.566;2022-07-18T01:22:11;9.35;;;3.92;;
42364;SDS011;28498;54.400;18.566;2022-07-18T01:24:39;7.28;;;3.75;;
42364;SDS011;28498;54.400;18.566;2022-07-18T01:27:07;12.10;;;4.18;;
42364;SDS011;28498;54.400;18.566;2022-07-18T01:29:36;12.50;;;4.45;;
42364;SDS011;28498;54.400;18.566;2022-07-18T01:32:07;8.25;;;3.72;;
42364;SDS011;28498;54.400;18.566;2022-07-18T01:34:35;10.18;;;4.38;;
42364;SDS011;28498;54.400;18.566;2022-07-18T01:37:02;7.88;;;3.80;;
42364;SDS011;28498;54.400;18.566;2022-07-18T01:39:30;10.05;;;3.60;;
42364;SDS011;28498;54.400;18.566;2022-07-18T01:41:57;12.30;;;3.97;;
42364;SDS011;28498;54.400;18.566;2022-07-18T01:44:29;10.30;;;4.22;;
42364;SDS011;28498;54.400;18.566;2022-07-18T01:46:58;10.25;;;4.10;;
42364;SDS011;28498;54.400;18.566;2022-07-18T01:49:25;11.20;;;3.95;;
42364;SDS011;28498;54.400;18.566;2022-07-18T01:51:54;11.80;;;4.35;;
42364;SDS011;28498;54.400;18.566;2022-07-18T01:54:26;9.60;;;3.42;;
42364;SDS011;28498;54.400;18.566;2022-07-18T01:56:55;12.63;;;4.25;;
42364;SDS011;28498;54.400;18.566;2022-07-18T01:59:23;9.02;;;4.03;;
42364;SDS011;28498;54.400;18.566;2022-07-18T02:01:50;6.95;;;3.30;;
42364;SDS011;28498;54.400;18.566;2022-07-18T02:04:18;7.07;;;3.80;;
42364;SDS011;28498;54.400;18.566;2022-07-18T02:06:45;8.95;;;3.92;;
42364;SDS011;28498;54.400;18.566;2022-07-18T02:09:12;8.82;;;3.63;;
42364;SDS011;28498;54.400;18.566;2022-07-18T02:11:39;9.30;;;3.70;;
42364;SDS011;28498;54.400;18.566;2022-07-18T02:14:06;8.82;;;3.60;;
42364;SDS011;28498;54.400;18.566;2022-07-18T02:16:33;9.10;;;4.00;;
42364;SDS011;28498;54.400;18.566;2022-07-18T02:19:00;8.77;;;4.05;;
42364;SDS011;28498;54.400;18.566;2022-07-18T02:21:27;9.70;;;3.78;;
42364;SDS011;28498;54.400;18.566;2022-07-18T02:23:54;9.27;;;4.60;;
42364;SDS011;28498;54.400;18.566;2022-07-18T02:26:21;8.45;;;4.00;;
42364;SDS011;28498;54.400;18.566;2022-07-18T02:28:48;7.80;;;3.67;;
42364;SDS011;28498;54.400;18.566;2022-07-18T02:31:15;8.30;;;3.65;;
42364;SDS011;28498;54.400;18.566;2022-07-18T02:33:42;12.80;;;3.70;;
42364;SDS011;28498;54.400;18.566;2022-07-18T02:36:09;9.55;;;4.30;;
42364;SDS011;28498;54.400;18.566;2022-07-18T02:38:36;13.13;;;4.25;;
42364;SDS011;28498;54.400;18.566;2022-07-18T02:41:03;9.77;;;3.70;;
42364;SDS011;28498;54.400;18.566;2022-07-18T02:43:30;11.18;;;3.85;;
42364;SDS011;28498;54.400;18.566;2022-07-18T02:45:57;11.23;;;4.10;;
42364;SDS011;28498;54.400;18.566;2022-07-18T02:48:24;7.70;;;3.88;;
42364;SDS011;28498;54.400;18.566;2022-07-18T02:50:51;11.02;;;3.83;;
42364;SDS011;28498;54.400;18.566;2022-07-18T02:53:18;9.23;;;3.90;;
42364;SDS011;28498;54.400;18.566;2022-07-18T02:55:48;15.85;;;5.32;;
42364;SDS011;28498;54.400;18.566;2022-07-18T02:58:16;7.63;;;3.47;;
42364;SDS011;28498;54.400;18.566;2022-07-18T03:00:44;9.20;;;3.65;;
42364;SDS011;28498;54.400;18.566;2022-07-18T03:03:11;11.70;;;4.15;;
42364;SDS011;28498;54.400;18.566;2022-07-18T03:05:37;11.90;;;4.75;;
42364;SDS011;28498;54.400;18.566;2022-07-18T03:08:04;10.27;;;4.15;;
42364;SDS011;28498;54.400;18.566;2022-07-18T03:10:31;10.95;;;3.88;;
42364;SDS011;28498;54.400;18.566;2022-07-18T03:12:58;7.85;;;3.47;;
42364;SDS011;28498;54.400;18.566;2022-07-18T03:15:25;7.78;;;3.97;;
42364;SDS011;28498;54.400;18.566;2022-07-18T03:17:53;8.50;;;3.33;;
42364;SDS011;28498;54.400;18.566;2022-07-18T03:20:20;10.07;;;3.53;;
42364;SDS011;28498;54.400;18.566;2022-07-18T03:22:47;6.90;;;3.80;;
42364;SDS011;28498;54.400;18.566;2022-07-18T03:25:14;9.98;;;3.63;;
42364;SDS011;28498;54.400;18.566;2022-07-18T03:27:41;6.97;;;3.60;;
42364;SDS011;28498;54.400;18.566;2022-07-18T03:30:08;9.18;;;3.92;;
42364;SDS011;28498;54.400;18.566;2022-07-18T03:32:36;10.38;;;3.97;;
42364;SDS011;28498;54.400;18.566;2022-07-18T03:35:03;9.68;;;3.85;;
42364;SDS011;28498;54.400;18.566;2022-07-18T03:37:30;10.25;;;3.83;;
42364;SDS011;28498;54.400;18.566;2022-07-18T03:39:57;8.48;;;3.67;;
42364;SDS011;28498;54.400;18.566;2022-07-18T03:42:24;6.80;;;3.53;;
42364;SDS011;28498;54.400;18.566;2022-07-18T03:44:51;8.32;;;3.50;;
42364;SDS011;28498;54.400;18.566;2022-07-18T03:47:18;6.47;;;3.60;;
42364;SDS011;28498;54.400;18.566;2022-07-18T03:49:45;9.95;;;3.45;;
42364;SDS011;28498;54.400;18.566;2022-07-18T03:52:12;8.48;;;3.55;;
42364;SDS011;28498;54.400;18.566;2022-07-18T03:54:39;9.95;;;3.63;;
42364;SDS011;28498;54.400;18.566;2022-07-18T03:57:05;10.93;;;3.83;;
42364;SDS011;28498;54.400;18.566;2022-07-18T03:59:32;6.13;;;3.42;;
42364;SDS011;28498;54.400;18.566;2022-07-18T04:02:02;9.50;;;3.45;;
42364;SDS011;28498;54.400;18.566;2022-07-18T04:04:29;9.70;;;3.25;;
42364;SDS011;28498;54.400;18.566;2022-07-18T04:06:56;6.93;;;3.80;;
42364;SDS011;28498;54.400;18.566;2022-07-18T04:09:26;9.93;;;3.42;;
42364;SDS011;28498;54.400;18.566;2022-07-18T04:11:53;9.95;;;3.47;;
42364;SDS011;28498;54.400;18.566;2022-07-18T04:14:21;7.72;;;3.30;;
42364;SDS011;28498;54.400;18.566;2022-07-18T04:16:49;10.13;;;4.03;;
42364;SDS011;28498;54.400;18.566;2022-07-18T04:19:16;10.20;;;3.60;;
42364;SDS011;28498;54.400;18.566;2022-07-18T04:21:46;7.20;;;3.80;;
42364;SDS011;28498;54.400;18.566;2022-07-18T04:24:13;8.15;;;3.38;;
42364;SDS011;28498;54.400;18.566;2022-07-18T04:26:39;6.72;;;3.17;;
42364;SDS011;28498;54.400;18.566;2022-07-18T04:29:06;7.28;;;3.28;;
42364;SDS011;28498;54.400;18.566;2022-07-18T04:31:33;7.15;;;3.70;;
42364;SDS011;28498;54.400;18.566;2022-07-18T04:34:01;9.88;;;3.20;;
42364;SDS011;28498;54.400;18.566;2022-07-18T04:36:28;5.50;;;3.25;;
42364;SDS011;28498;54.400;18.566;2022-07-18T04:38:55;6.20;;;3.30;;
42364;SDS011;28498;54.400;18.566;2022-07-18T04:41:22;9.38;;;3.08;;
42364;SDS011;28498;54.400;18.566;2022-07-18T04:43:51;7.28;;;3.22;;
42364;SDS011;28498;54.400;18.566;2022-07-18T04:46:18;8.73;;;4.13;;
42364;SDS011;28498;54.400;18.566;2022-07-18T04:48:46;7.43;;;3.13;;
42364;SDS011;28498;54.400;18.566;2022-07-18T04:51:13;8.38;;;3.10;;
42364;SDS011;28498;54.400;18.566;2022-07-18T04:53:40;7.30;;;3.40;;
42364;SDS011;28498;54.400;18.566;2022-07-18T04:56:06;7.82;;;3.33;;
42364;SDS011;28498;54.400;18.566;2022-07-18T04:58:34;10.13;;;3.10;;
42364;SDS011;28498;54.400;18.566;2022-07-18T05:01:00;6.93;;;3.83;;
42364;SDS011;28498;54.400;18.566;2022-07-18T05:03:27;9.30;;;4.60;;
42364;SDS011;28498;54.400;18.566;2022-07-18T05:05:54;11.13;;;3.20;;
42364;SDS011;28498;54.400;18.566;2022-07-18T05:08:21;7.43;;;3.28;;
42364;SDS011;28498;54.400;18.566;2022-07-18T05:10:48;8.18;;;3.47;;
42364;SDS011;28498;54.400;18.566;2022-07-18T05:13:15;6.70;;;3.05;;
42364;SDS011;28498;54.400;18.566;2022-07-18T05:15:42;9.77;;;3.15;;
42364;SDS011;28498;54.400;18.566;2022-07-18T05:18:09;6.50;;;2.83;;
42364;SDS011;28498;54.400;18.566;2022-07-18T05:20:36;6.60;;;3.63;;
42364;SDS011;28498;54.400;18.566;2022-07-18T05:23:08;6.72;;;2.88;;
42364;SDS011;28498;54.400;18.566;2022-07-18T05:25:35;7.72;;;2.70;;
42364;SDS011;28498;54.400;18.566;2022-07-18T05:28:03;4.53;;;2.20;;
42364;SDS011;28498;54.400;18.566;2022-07-18T05:30:30;6.95;;;2.63;;
42364;SDS011;28498;54.400;18.566;2022-07-18T05:32:57;4.63;;;2.40;;
42364;SDS011;28498;54.400;18.566;2022-07-18T05:35:24;7.13;;;2.53;;
42364;SDS011;28498;54.400;18.566;2022-07-18T05:37:51;5.95;;;2.63;;
42364;SDS011;28498;54.400;18.566;2022-07-18T05:40:18;6.90;;;2.40;;
42364;SDS011;28498;54.400;18.566;2022-07-18T05:42:45;6.90;;;2.47;;
42364;SDS011;28498;54.400;18.566;2022-07-18T05:47:47;6.80;;;2.58;;
42364;SDS011;28498;54.400;18.566;2022-07-18T05:50:14;7.22;;;3.00;;
42364;SDS011;28498;54.400;18.566;2022-07-18T05:52:41;5.35;;;2.70;;
42364;SDS011;28498;54.400;18.566;2022-07-18T05:55:08;5.65;;;2.58;;
42364;SDS011;28498;54.400;18.566;2022-07-18T05:57:36;7.60;;;2.53;;
42364;SDS011;28498;54.400;18.566;2022-07-18T06:00:04;6.85;;;2.70;;
42364;SDS011;28498;54.400;18.566;2022-07-18T06:02:32;4.57;;;2.40;;
42364;SDS011;28498;54.400;18.566;2022-07-18T06:04:59;6.28;;;2.42;;
42364;SDS011;28498;54.400;18.566;2022-07-18T06:07:46;5.07;;;2.40;;
42364;SDS011;28498;54.400;18.566;2022-07-18T06:10:13;5.97;;;2.53;;
42364;SDS011;28498;54.400;18.566;2022-07-18T06:12:40;5.18;;;2.40;;
42364;SDS011;28498;54.400;18.566;2022-07-18T06:15:07;5.35;;;2.30;;
42364;SDS011;28498;54.400;18.566;2022-07-18T06:17:34;8.40;;;2.70;;
42364;SDS011;28498;54.400;18.566;2022-07-18T06:20:01;7.85;;;2.90;;
42364;SDS011;28498;54.400;18.566;2022-07-18T06:22:31;4.55;;;2.25;;
42364;SDS011;28498;54.400;18.566;2022-07-18T06:24:58;5.78;;;2.47;;
42364;SDS011;28498;54.400;18.566;2022-07-18T06:27:25;5.38;;;2.30;;
42364;SDS011;28498;54.400;18.566;2022-07-18T06:29:52;5.78;;;2.80;;
42364;SDS011;28498;54.400;18.566;2022-07-18T06:32:19;9.55;;;3.38;;
42364;SDS011;28498;54.400;18.566;2022-07-18T06:34:46;4.68;;;2.97;;
42364;SDS011;28498;54.400;18.566;2022-07-18T06:37:13;4.93;;;2.85;;
42364;SDS011;28498;54.400;18.566;2022-07-18T06:39:40;5.03;;;2.72;;
42364;SDS011;28498;54.400;18.566;2022-07-18T06:42:07;5.65;;;2.38;;
42364;SDS011;28498;54.400;18.566;2022-07-18T06:44:34;4.47;;;2.17;;
42364;SDS011;28498;54.400;18.566;2022-07-18T06:47:01;6.53;;;2.85;;
42364;SDS011;28498;54.400;18.566;2022-07-18T06:49:28;5.93;;;3.47;;
42364;SDS011;28498;54.400;18.566;2022-07-18T06:51:54;4.68;;;2.70;;
42364;SDS011;28498;54.400;18.566;2022-07-18T06:54:29;6.70;;;2.67;;
42364;SDS011;28498;54.400;18.566;2022-07-18T06:56:56;5.88;;;2.25;;
42364;SDS011;28498;54.400;18.566;2022-07-18T06:59:25;5.45;;;2.80;;
42364;SDS011;28498;54.400;18.566;2022-07-18T07:01:52;6.53;;;2.75;;
42364;SDS011;28498;54.400;18.566;2022-07-18T07:04:19;8.15;;;3.00;;
42364;SDS011;28498;54.400;18.566;2022-07-18T07:06:46;7.07;;;3.40;;
42364;SDS011;28498;54.400;18.566;2022-07-18T07:09:13;7.15;;;3.08;;
42364;SDS011;28498;54.400;18.566;2022-07-18T07:11:40;5.30;;;2.90;;
42364;SDS011;28498;54.400;18.566;2022-07-18T07:14:07;6.10;;;2.70;;
42364;SDS011;28498;54.400;18.566;2022-07-18T07:16:34;5.78;;;2.50;;
42364;SDS011;28498;54.400;18.566;2022-07-18T07:19:01;7.20;;;3.05;;
42364;SDS011;28498;54.400;18.566;2022-07-18T07:21:28;8.52;;;2.92;;
42364;SDS011;28498;54.400;18.566;2022-07-18T07:23:55;4.95;;;2.55;;
42364;SDS011;28498;54.400;18.566;2022-07-18T07:26:22;4.38;;;2.58;;
42364;SDS011;28498;54.400;18.566;2022-07-18T07:28:50;6.68;;;3.35;;
42364;SDS011;28498;54.400;18.566;2022-07-18T07:31:17;8.60;;;3.60;;
42364;SDS011;28498;54.400;18.566;2022-07-18T07:33:44;6.22;;;2.53;;
42364;SDS011;28498;54.400;18.566;2022-07-18T07:36:11;7.40;;;2.70;;
42364;SDS011;28498;54.400;18.566;2022-07-18T07:38:38;5.25;;;2.47;;
42364;SDS011;28498;54.400;18.566;2022-07-18T07:41:05;5.53;;;2.45;;
42364;SDS011;28498;54.400;18.566;2022-07-18T07:43:33;6.47;;;3.22;;
42364;SDS011;28498;54.400;18.566;2022-07-18T07:46:02;7.00;;;2.65;;
42364;SDS011;28498;54.400;18.566;2022-07-18T07:48:29;6.50;;;2.60;;
42364;SDS011;28498;54.400;18.566;2022-07-18T07:50:57;9.02;;;3.45;;
42364;SDS011;28498;54.400;18.566;2022-07-18T07:53:24;4.85;;;2.47;;
42364;SDS011;28498;54.400;18.566;2022-07-18T07:55:51;5.50;;;2.95;;
42364;SDS011;28498;54.400;18.566;2022-07-18T07:58:18;6.90;;;2.55;;
42364;SDS011;28498;54.400;18.566;2022-07-18T08:00:45;5.80;;;3.00;;
42364;SDS011;28498;54.400;18.566;2022-07-18T08:03:12;6.50;;;2.67;;
42364;SDS011;28498;54.400;18.566;2022-07-18T08:05:46;5.28;;;2.47;;
42364;SDS011;28498;54.400;18.566;2022-07-18T08:08:15;10.30;;;3.97;;
42364;SDS011;28498;54.400;18.566;2022-07-18T08:10:43;7.20;;;2.53;;
42364;SDS011;28498;54.400;18.566;2022-07-18T08:13:11;5.13;;;2.75;;
42364;SDS011;28498;54.400;18.566;2022-07-18T08:15:39;5.30;;;2.95;;
42364;SDS011;28498;54.400;18.566;2022-07-18T08:18:06;7.13;;;2.67;;
42364;SDS011;28498;54.400;18.566;2022-07-18T08:20:33;6.07;;;2.75;;
42364;SDS011;28498;54.400;18.566;2022-07-18T08:23:06;34.30;;;3.67;;
42364;SDS011;28498;54.400;18.566;2022-07-18T08:25:35;6.13;;;2.20;;
42364;SDS011;28498;54.400;18.566;2022-07-18T08:28:04;6.63;;;2.50;;
42364;SDS011;28498;54.400;18.566;2022-07-18T08:30:31;5.93;;;2.70;;
42364;SDS011;28498;54.400;18.566;2022-07-18T08:32:59;9.13;;;2.30;;
42364;SDS011;28498;54.400;18.566;2022-07-18T08:35:27;6.93;;;2.55;;
42364;SDS011;28498;54.400;18.566;2022-07-18T08:37:55;5.88;;;2.17;;
42364;SDS011;28498;54.400;18.566;2022-07-18T08:40:22;6.55;;;2.60;;
42364;SDS011;28498;54.400;18.566;2022-07-18T08:42:50;5.97;;;2.50;;
42364;SDS011;28498;54.400;18.566;2022-07-18T08:45:38;7.28;;;2.83;;
42364;SDS011;28498;54.400;18.566;2022-07-18T08:48:15;5.80;;;2.63;;
42364;SDS011;28498;54.400;18.566;2022-07-18T08:50:44;5.63;;;2.40;;
42364;SDS011;28498;54.400;18.566;2022-07-18T08:53:12;5.03;;;2.65;;
42364;SDS011;28498;54.400;18.566;2022-07-18T08:55:40;6.40;;;2.67;;
42364;SDS011;28498;54.400;18.566;2022-07-18T08:58:08;5.50;;;2.28;;
42364;SDS011;28498;54.400;18.566;2022-07-18T09:00:57;7.03;;;2.10;;
42364;SDS011;28498;54.400;18.566;2022-07-18T09:03:24;4.45;;;2.10;;
42364;SDS011;28498;54.400;18.566;2022-07-18T09:08:40;6.25;;;2.13;;
42364;SDS011;28498;54.400;18.566;2022-07-18T09:11:23;5.97;;;2.20;;
42364;SDS011;28498;54.400;18.566;2022-07-18T09:14:26;4.40;;;2.10;;
42364;SDS011;28498;54.400;18.566;2022-07-18T09:17:02;8.43;;;3.10;;
42364;SDS011;28498;54.400;18.566;2022-07-18T09:19:34;5.68;;;2.33;;
42364;SDS011;28498;54.400;18.566;2022-07-18T09:24:49;5.68;;;1.70;;
42364;SDS011;28498;54.400;18.566;2022-07-18T09:27:35;4.38;;;1.70;;
42364;SDS011;28498;54.400;18.566;2022-07-18T09:35:31;4.32;;;1.92;;
42364;SDS011;28498;54.400;18.566;2022-07-18T09:38:14;5.07;;;2.05;;
42364;SDS011;28498;54.400;18.566;2022-07-18T09:43:18;4.43;;;2.30;;
42364;SDS011;28498;54.400;18.566;2022-07-18T09:45:50;3.67;;;1.80;;
42364;SDS011;28498;54.400;18.566;2022-07-18T09:48:21;3.60;;;1.90;;
42364;SDS011;28498;54.400;18.566;2022-07-18T09:50:50;5.05;;;1.95;;
42364;SDS011;28498;54.400;18.566;2022-07-18T09:53:27;4.90;;;1.90;;
42364;SDS011;28498;54.400;18.566;2022-07-18T09:58:28;4.20;;;1.80;;
42364;SDS011;28498;54.400;18.566;2022-07-18T10:00:57;5.88;;;1.98;;
42364;SDS011;28498;54.400;18.566;2022-07-18T10:03:26;4.10;;;1.75;;
42364;SDS011;28498;54.400;18.566;2022-07-18T10:05:54;4.68;;;1.95;;
42364;SDS011;28498;54.400;18.566;2022-07-18T10:08:24;7.20;;;2.10;;
42364;SDS011;28498;54.400;18.566;2022-07-18T10:10:53;4.38;;;2.30;;
42364;SDS011;28498;54.400;18.566;2022-07-18T10:13:22;4.43;;;2.10;;
42364;SDS011;28498;54.400;18.566;2022-07-18T10:15:50;5.65;;;2.13;;
42364;SDS011;28498;54.400;18.566;2022-07-18T10:18:18;5.07;;;2.20;;
42364;SDS011;28498;54.400;18.566;2022-07-18T10:20:49;7.80;;;2.40;;
42364;SDS011;28498;54.400;18.566;2022-07-18T10:23:22;5.97;;;2.33;;
42364;SDS011;28498;54.400;18.566;2022-07-18T10:28:54;4.38;;;2.25;;
42364;SDS011;28498;54.400;18.566;2022-07-18T10:31:28;7.70;;;2.20;;
42364;SDS011;28498;54.400;18.566;2022-07-18T10:39:19;4.35;;;2.50;;
42364;SDS011;28498;54.400;18.566;2022-07-18T11:00:11;4.97;;;2.30;;
42364;SDS011;28498;54.400;18.566;2022-07-18T11:02:41;4.78;;;2.20;;
42364;SDS011;28498;54.400;18.566;2022-07-18T11:15:54;5.05;;;2.35;;
42364;SDS011;28498;54.400;18.566;2022-07-18T11:18:29;8.27;;;2.72;;
42364;SDS011;28498;54.400;18.566;2022-07-18T11:20:58;4.40;;;2.00;;
42364;SDS011;28498;54.400;18.566;2022-07-18T11:23:26;4.13;;;2.05;;
42364;SDS011;28498;54.400;18.566;2022-07-18T11:26:02;6.38;;;2.60;;
42364;SDS011;28498;54.400;18.566;2022-07-18T11:28:29;5.28;;;2.40;;
42364;SDS011;28498;54.400;18.566;2022-07-18T11:31:00;4.53;;;2.20;;
42364;SDS011;28498;54.400;18.566;2022-07-18T11:33:35;5.50;;;2.33;;
42364;SDS011;28498;54.400;18.566;2022-07-18T11:38:32;4.10;;;1.98;;
42364;SDS011;28498;54.400;18.566;2022-07-18T11:41:01;11.02;;;3.35;;
42364;SDS011;28498;54.400;18.566;2022-07-18T11:43:29;4.35;;;2.30;;
42364;SDS011;28498;54.400;18.566;2022-07-18T11:46:00;5.55;;;2.00;;
42364;SDS011;28498;54.400;18.566;2022-07-18T11:48:44;3.22;;;1.77;;
42364;SDS011;28498;54.400;18.566;2022-07-18T11:51:19;4.90;;;2.20;;
42364;SDS011;28498;54.400;18.566;2022-07-18T11:53:47;5.80;;;2.38;;
42364;SDS011;28498;54.400;18.566;2022-07-18T11:56:16;3.88;;;2.47;;
42364;SDS011;28498;54.400;18.566;2022-07-18T11:58:44;5.03;;;2.25;;
42364;SDS011;28498;54.400;18.566;2022-07-18T12:01:12;5.45;;;2.10;;
42364;SDS011;28498;54.400;18.566;2022-07-18T12:03:43;3.65;;;1.95;;
42364;SDS011;28498;54.400;18.566;2022-07-18T12:06:15;5.57;;;1.95;;
42364;SDS011;28498;54.400;18.566;2022-07-18T12:08:46;6.72;;;2.63;;
42364;SDS011;28498;54.400;18.566;2022-07-18T12:15:00;3.10;;;1.60;;
42364;SDS011;28498;54.400;18.566;2022-07-18T12:17:29;3.65;;;1.52;;
42364;SDS011;28498;54.400;18.566;2022-07-18T12:20:13;3.10;;;1.38;;
42364;SDS011;28498;54.400;18.566;2022-07-18T12:25:41;3.85;;;1.45;;
42364;SDS011;28498;54.400;18.566;2022-07-18T12:28:15;3.22;;;1.90;;
42364;SDS011;28498;54.400;18.566;2022-07-18T12:30:44;3.63;;;1.60;;
42364;SDS011;28498;54.400;18.566;2022-07-18T12:33:12;3.05;;;1.48;;
42364;SDS011;28498;54.400;18.566;2022-07-18T12:39:27;4.53;;;1.30;;
42364;SDS011;28498;54.400;18.566;2022-07-18T12:41:58;2.92;;;1.20;;
42364;SDS011;28498;54.400;18.566;2022-07-18T12:44:27;2.28;;;1.00;;
42364;SDS011;28498;54.400;18.566;2022-07-18T12:46:54;3.53;;;1.30;;
42364;SDS011;28498;54.400;18.566;2022-07-18T12:49:22;2.72;;;1.27;;
42364;SDS011;28498;54.400;18.566;2022-07-18T12:51:49;3.05;;;1.40;;
42364;SDS011;28498;54.400;18.566;2022-07-18T12:54:16;3.42;;;1.17;;
42364;SDS011;28498;54.400;18.566;2022-07-18T12:56:44;3.97;;;1.27;;
42364;SDS011;28498;54.400;18.566;2022-07-18T12:59:11;4.63;;;1.48;;
42364;SDS011;28498;54.400;18.566;2022-07-18T13:01:38;4.22;;;1.33;;
42364;SDS011;28498;54.400;18.566;2022-07-18T13:04:05;4.75;;;1.23;;
42364;SDS011;28498;54.400;18.566;2022-07-18T13:06:32;3.20;;;1.40;;
42364;SDS011;28498;54.400;18.566;2022-07-18T13:08:59;2.78;;;1.85;;
42364;SDS011;28498;54.400;18.566;2022-07-18T13:11:26;2.60;;;1.20;;
42364;SDS011;28498;54.400;18.566;2022-07-18T13:13:56;3.17;;;1.70;;
42364;SDS011;28498;54.400;18.566;2022-07-18T13:16:23;3.40;;;1.30;;
42364;SDS011;28498;54.400;18.566;2022-07-18T13:18:51;4.93;;;1.20;;
42364;SDS011;28498;54.400;18.566;2022-07-18T13:21:17;3.10;;;1.88;;
42364;SDS011;28498;54.400;18.566;2022-07-18T13:23:44;2.92;;;1.20;;
42364;SDS011;28498;54.400;18.566;2022-07-18T13:26:12;2.83;;;1.38;;
42364;SDS011;28498;54.400;18.566;2022-07-18T13:28:38;3.47;;;1.40;;
42364;SDS011;28498;54.400;18.566;2022-07-18T13:31:05;3.45;;;1.50;;
42364;SDS011;28498;54.400;18.566;2022-07-18T13:33:32;4.78;;;1.70;;
42364;SDS011;28498;54.400;18.566;2022-07-18T13:35:59;4.97;;;1.50;;
42364;SDS011;28498;54.400;18.566;2022-07-18T13:38:26;4.60;;;1.60;;
42364;SDS011;28498;54.400;18.566;2022-07-18T13:40:53;4.03;;;1.42;;
42364;SDS011;28498;54.400;18.566;2022-07-18T13:43:20;4.18;;;1.50;;
42364;SDS011;28498;54.400;18.566;2022-07-18T13:45:47;3.67;;;1.30;;
42364;SDS011;28498;54.400;18.566;2022-07-18T13:48:14;3.95;;;1.35;;
42364;SDS011;28498;54.400;18.566;2022-07-18T13:50:41;2.70;;;1.40;;
42364;SDS011;28498;54.400;18.566;2022-07-18T13:53:08;3.92;;;1.60;;
42364;SDS011;28498;54.400;18.566;2022-07-18T13:55:35;3.88;;;1.45;;
42364;SDS011;28498;54.400;18.566;2022-07-18T13:58:02;5.53;;;1.42;;
42364;SDS011;28498;54.400;18.566;2022-07-18T14:00:32;4.47;;;1.35;;
42364;SDS011;28498;54.400;18.566;2022-07-18T14:02:59;2.90;;;1.42;;
42364;SDS011;28498;54.400;18.566;2022-07-18T14:05:27;3.47;;;1.42;;
42364;SDS011;28498;54.400;18.566;2022-07-18T14:07:54;3.30;;;1.30;;
42364;SDS011;28498;54.400;18.566;2022-07-18T14:10:21;3.40;;;1.50;;
42364;SDS011;28498;54.400;18.566;2022-07-18T14:12:47;2.58;;;1.50;;
42364;SDS011;28498;54.400;18.566;2022-07-18T14:15:14;2.90;;;1.25;;
42364;SDS011;28498;54.400;18.566;2022-07-18T14:17:41;5.22;;;1.40;;
42364;SDS011;28498;54.400;18.566;2022-07-18T14:20:09;3.40;;;1.55;;
42364;SDS011;28498;54.400;18.566;2022-07-18T14:22:37;5.00;;;1.50;;
42364;SDS011;28498;54.400;18.566;2022-07-18T14:25:05;3.83;;;1.70;;
42364;SDS011;28498;54.400;18.566;2022-07-18T14:27:34;3.92;;;1.63;;
42364;SDS011;28498;54.400;18.566;2022-07-18T14:30:02;2.58;;;1.50;;
42364;SDS011;28498;54.400;18.566;2022-07-18T14:32:30;3.72;;;1.45;;
42364;SDS011;28498;54.400;18.566;2022-07-18T14:38:44;4.68;;;1.67;;
42364;SDS011;28498;54.400;18.566;2022-07-18T14:41:11;3.50;;;1.80;;
42364;SDS011;28498;54.400;18.566;2022-07-18T14:43:39;3.05;;;1.30;;
42364;SDS011;28498;54.400;18.566;2022-07-18T14:49:54;3.70;;;1.88;;
42364;SDS011;28498;54.400;18.566;2022-07-18T14:52:21;3.60;;;1.88;;
42364;SDS011;28498;54.400;18.566;2022-07-18T14:54:48;3.42;;;1.58;;
42364;SDS011;28498;54.400;18.566;2022-07-18T14:57:15;5.25;;;1.90;;
42364;SDS011;28498;54.400;18.566;2022-07-18T14:59:43;3.95;;;2.00;;
42364;SDS011;28498;54.400;18.566;2022-07-18T15:02:10;4.78;;;2.20;;
42364;SDS011;28498;54.400;18.566;2022-07-18T15:04:39;6.47;;;1.92;;
42364;SDS011;28498;54.400;18.566;2022-07-18T15:07:07;4.30;;;2.38;;
42364;SDS011;28498;54.400;18.566;2022-07-18T15:09:34;5.57;;;2.22;;
42364;SDS011;28498;54.400;18.566;2022-07-18T15:12:01;3.58;;;2.22;;
42364;SDS011;28498;54.400;18.566;2022-07-18T15:14:28;4.45;;;2.08;;
42364;SDS011;28498;54.400;18.566;2022-07-18T15:16:56;5.03;;;2.40;;
42364;SDS011;28498;54.400;18.566;2022-07-18T15:19:23;5.70;;;2.33;;
42364;SDS011;28498;54.400;18.566;2022-07-18T15:21:49;6.53;;;2.30;;
42364;SDS011;28498;54.400;18.566;2022-07-18T15:24:17;3.72;;;2.20;;
42364;SDS011;28498;54.400;18.566;2022-07-18T15:26:43;4.60;;;2.10;;
42364;SDS011;28498;54.400;18.566;2022-07-18T15:29:10;5.53;;;2.30;;
42364;SDS011;28498;54.400;18.566;2022-07-18T15:31:37;6.53;;;2.83;;
42364;SDS011;28498;54.400;18.566;2022-07-18T15:34:04;5.38;;;2.58;;
42364;SDS011;28498;54.400;18.566;2022-07-18T15:36:31;4.97;;;2.45;;
42364;SDS011;28498;54.400;18.566;2022-07-18T15:38:58;7.15;;;3.17;;
42364;SDS011;28498;54.400;18.566;2022-07-18T15:41:25;6.25;;;3.00;;
42364;SDS011;28498;54.400;18.566;2022-07-18T15:43:52;4.28;;;2.42;;
42364;SDS011;28498;54.400;18.566;2022-07-18T15:46:22;6.88;;;3.03;;
42364;SDS011;28498;54.400;18.566;2022-07-18T15:48:49;6.35;;;2.92;;
42364;SDS011;28498;54.400;18.566;2022-07-18T15:51:17;5.45;;;3.10;;
42364;SDS011;28498;54.400;18.566;2022-07-18T15:53:44;7.22;;;3.10;;
42364;SDS011;28498;54.400;18.566;2022-07-18T15:56:12;8.65;;;3.95;;